createdAt,value
2017-08-30T00:00:04.520Z,18.47
2017-08-30T00:03:05.627Z,17.53
2017-08-30T00:06:03.482Z,18.43
2017-08-30T00:09:00.835Z,16.93
2017-08-30T00:12:00.343Z,18.23
2017-08-30T00:14:58.196Z,17.70
2017-08-30T00:17:55.831Z,17.20
2017-08-30T00:20:53.480Z,16.53
2017-08-30T00:23:51.204Z,17.03
2017-08-30T00:26:51.307Z,18.00
2017-08-30T00:29:51.223Z,18.57
2017-08-30T00:32:53.875Z,23.53
2017-08-30T00:35:51.536Z,17.37
2017-08-30T00:38:49.395Z,18.00
2017-08-30T00:41:53.855Z,18.00
2017-08-30T00:44:51.395Z,18.03
2017-08-30T00:47:49.271Z,17.50
2017-08-30T00:50:49.809Z,17.40
2017-08-30T00:53:53.340Z,17.30
2017-08-30T00:56:51.804Z,20.23
2017-08-30T00:59:58.659Z,16.97
2017-08-30T01:03:02.324Z,21.20
2017-08-30T01:06:00.097Z,17.33
2017-08-30T01:09:10.679Z,17.17
2017-08-30T01:12:08.200Z,18.00
2017-08-30T01:15:05.801Z,18.00
2017-08-30T01:18:04.448Z,20.00
2017-08-30T01:21:05.051Z,17.80
2017-08-30T01:24:02.791Z,20.93
2017-08-30T01:27:03.432Z,19.53
2017-08-30T01:30:08.015Z,19.17
2017-08-30T01:33:05.952Z,19.20
2017-08-30T01:36:06.575Z,17.47
2017-08-30T01:39:04.032Z,17.23
2017-08-30T01:42:07.918Z,17.40
2017-08-30T01:45:05.451Z,16.60
2017-08-30T01:48:02.884Z,17.80
2017-08-30T01:51:01.324Z,19.60
2017-08-30T01:54:08.934Z,18.00
2017-08-30T01:57:19.776Z,19.67
2017-08-30T02:00:18.651Z,16.93
2017-08-30T02:03:16.100Z,17.90
2017-08-30T02:06:13.499Z,18.63
2017-08-30T02:09:14.165Z,17.90
2017-08-30T02:12:11.867Z,17.60
2017-08-30T02:15:09.361Z,16.67
2017-08-30T02:18:14.048Z,19.43
2017-08-30T02:21:11.799Z,23.53
2017-08-30T02:24:09.164Z,18.63
2017-08-30T02:27:06.963Z,18.13
2017-08-30T02:30:04.617Z,17.27
2017-08-30T02:33:03.075Z,17.47
2017-08-30T02:36:01.740Z,17.30
2017-08-30T02:38:59.451Z,17.33
2017-08-30T02:41:58.052Z,16.40
2017-08-30T02:44:55.692Z,17.70
2017-08-30T02:47:59.128Z,17.43
2017-08-30T02:50:56.233Z,18.33
2017-08-30T02:54:06.308Z,18.17
2017-08-30T02:57:05.883Z,16.30
2017-08-30T03:00:03.494Z,17.20
2017-08-30T03:03:06.377Z,14.97
2017-08-30T03:06:04.068Z,15.90
2017-08-30T03:09:01.808Z,16.90
2017-08-30T03:11:59.280Z,17.40
2017-08-30T03:14:56.967Z,18.23
2017-08-30T03:17:55.784Z,15.97
2017-08-30T03:20:53.336Z,17.10
2017-08-30T03:23:54.840Z,16.07
2017-08-30T03:26:58.351Z,17.90
2017-08-30T03:29:56.196Z,16.40
2017-08-30T03:33:02.971Z,16.27
2017-08-30T03:36:01.427Z,17.57
2017-08-30T03:38:59.160Z,21.53
2017-08-30T03:42:09.761Z,18.37
2017-08-30T03:45:07.488Z,17.73
2017-08-30T03:48:05.251Z,17.63
2017-08-30T03:51:02.720Z,18.50
2017-08-30T03:54:04.652Z,17.53
2017-08-30T03:57:03.216Z,17.17
2017-08-30T04:00:00.779Z,17.00
2017-08-30T04:02:59.468Z,15.03
2017-08-30T04:06:00.038Z,14.37
2017-08-30T04:08:59.719Z,16.47
2017-08-30T04:11:57.448Z,18.53
2017-08-30T04:15:03.008Z,18.77
2017-08-30T04:18:02.616Z,16.53
2017-08-30T04:21:03.230Z,19.47
2017-08-30T04:24:14.972Z,17.47
2017-08-30T04:27:12.638Z,18.23
2017-08-30T04:30:10.280Z,18.23
2017-08-30T04:33:07.813Z,19.57
2017-08-30T04:36:05.501Z,17.10
2017-08-30T04:39:03.135Z,16.10
2017-08-30T04:42:01.748Z,20.10
2017-08-30T04:44:59.238Z,14.53
2017-08-30T04:47:56.865Z,16.97
2017-08-30T04:50:59.720Z,17.10
2017-08-30T04:53:57.376Z,16.83
2017-08-30T04:56:55.939Z,16.60
2017-08-30T04:59:54.478Z,17.27
2017-08-30T05:02:56.115Z,15.43
2017-08-30T05:05:54.730Z,17.60
2017-08-30T05:08:52.428Z,15.80
2017-08-30T05:11:50.007Z,15.87
2017-08-30T05:14:49.656Z,22.10
2017-08-30T05:17:48.144Z,18.80
2017-08-30T05:20:45.714Z,17.17
2017-08-30T05:23:44.448Z,18.53
2017-08-30T05:26:42.064Z,15.07
2017-08-30T05:29:41.751Z,13.90
2017-08-30T05:32:41.656Z,13.57
2017-08-30T05:35:41.241Z,16.03
2017-08-30T05:38:38.891Z,14.90
2017-08-30T05:41:36.771Z,14.30
2017-08-30T05:44:34.475Z,14.20
2017-08-30T05:47:32.044Z,14.57
2017-08-30T05:50:30.925Z,14.00
2017-08-30T05:53:28.323Z,15.37
2017-08-30T05:56:25.901Z,15.83
2017-08-30T05:59:24.631Z,17.00
2017-08-30T06:02:22.408Z,14.80
2017-08-30T06:05:20.032Z,13.80
2017-08-30T06:08:17.670Z,15.33
2017-08-30T06:11:15.539Z,17.20
2017-08-30T06:14:15.760Z,15.07
2017-08-30T06:17:19.395Z,16.07
2017-08-30T06:20:18.298Z,17.57
2017-08-30T06:23:15.999Z,16.30
2017-08-30T06:26:16.640Z,17.57
2017-08-30T06:29:14.063Z,18.27
2017-08-30T06:32:11.811Z,19.73
2017-08-30T06:35:09.259Z,18.57
2017-08-30T06:38:06.699Z,29.77
2017-08-30T06:41:04.532Z,20.20
2017-08-30T06:44:02.029Z,24.10
2017-08-30T06:46:59.862Z,21.97
2017-08-30T06:50:01.660Z,18.23
2017-08-30T06:52:59.049Z,20.47
2017-08-30T06:55:56.668Z,21.90
2017-08-30T06:58:54.216Z,19.47
2017-08-30T07:01:51.571Z,18.53
2017-08-30T07:04:49.231Z,22.10
2017-08-30T07:07:51.067Z,20.10
2017-08-30T07:10:48.586Z,20.37
2017-08-30T07:13:46.143Z,20.63
2017-08-30T07:16:43.924Z,24.90
2017-08-30T07:19:47.892Z,23.23
2017-08-30T07:22:45.628Z,23.10
2017-08-30T07:25:43.184Z,20.63
2017-08-30T07:28:41.160Z,22.90
2017-08-30T07:31:38.992Z,22.17
2017-08-30T07:34:42.982Z,20.87
2017-08-30T07:37:40.840Z,21.17
2017-08-30T07:40:38.540Z,25.33
2017-08-30T07:43:37.192Z,27.97
2017-08-30T07:46:34.677Z,28.10
2017-08-30T07:49:32.408Z,25.13
2017-08-30T07:52:30.247Z,20.73
2017-08-30T07:55:27.364Z,20.57
2017-08-30T07:58:25.348Z,23.10
2017-08-30T08:01:23.170Z,22.23
2017-08-30T08:04:22.022Z,20.70
2017-08-30T08:07:19.519Z,23.40
2017-08-30T08:10:17.431Z,19.53
2017-08-30T08:13:15.508Z,24.83
2017-08-30T08:16:12.656Z,18.93
2017-08-30T08:19:10.265Z,17.50
2017-08-30T08:22:07.827Z,21.40
2017-08-30T08:25:05.617Z,20.07
2017-08-30T08:28:04.396Z,16.83
2017-08-30T08:31:11.307Z,16.33
2017-08-30T08:34:08.925Z,19.73
2017-08-30T08:37:06.483Z,16.30
2017-08-30T08:40:04.162Z,14.80
2017-08-30T08:43:02.187Z,19.23
2017-08-30T08:46:00.847Z,20.43
2017-08-30T08:48:58.711Z,16.07
2017-08-30T08:51:56.553Z,20.00
2017-08-30T08:54:54.245Z,12.83
2017-08-30T08:57:51.843Z,13.67
2017-08-30T09:00:49.303Z,18.80
2017-08-30T09:03:46.943Z,18.90
2017-08-30T09:06:44.708Z,20.60
2017-08-30T09:09:42.371Z,18.57
2017-08-30T09:12:41.079Z,21.20
2017-08-30T09:15:38.700Z,11.90
2017-08-30T09:18:38.312Z,17.13
2017-08-30T09:21:35.771Z,13.33
2017-08-30T09:24:33.321Z,12.70
2017-08-30T09:27:34.926Z,12.30
2017-08-30T09:30:32.759Z,14.60
2017-08-30T09:36:51.843Z,13.63
2017-08-30T09:39:51.488Z,16.93
2017-08-30T09:42:49.196Z,13.67
2017-08-30T09:45:46.717Z,17.90
2017-08-30T09:48:44.397Z,17.73
2017-08-30T09:51:46.108Z,15.33
2017-08-30T09:54:44.607Z,19.10
2017-08-30T09:57:42.267Z,18.10
2017-08-30T10:00:39.899Z,22.90
2017-08-30T10:03:43.584Z,13.20
2017-08-30T10:06:42.610Z,14.93
2017-08-30T10:09:40.394Z,14.77
2017-08-30T10:12:37.972Z,14.67
2017-08-30T10:15:35.615Z,12.80
2017-08-30T10:18:39.371Z,15.33
2017-08-30T10:21:37.460Z,16.73
2017-08-30T10:24:42.335Z,13.87
2017-08-30T10:27:39.956Z,10.30
2017-08-30T10:30:37.500Z,15.30
2017-08-30T10:33:35.204Z,14.17
2017-08-30T10:36:45.936Z,14.27
2017-08-30T10:39:43.559Z,14.10
2017-08-30T10:42:43.244Z,14.73
2017-08-30T10:45:40.743Z,13.47
2017-08-30T10:48:38.600Z,11.87
2017-08-30T10:51:36.335Z,12.07
2017-08-30T10:54:35.127Z,17.10
2017-08-30T10:57:42.600Z,13.13
2017-08-30T11:00:40.215Z,8.93
2017-08-30T11:03:43.899Z,19.00
2017-08-30T11:06:42.593Z,15.80
2017-08-30T11:09:40.229Z,14.33
2017-08-30T11:12:38.115Z,13.10
2017-08-30T11:15:35.785Z,20.83
2017-08-30T11:18:33.415Z,13.67
2017-08-30T11:21:31.022Z,21.93
2017-08-30T11:24:28.664Z,16.53
2017-08-30T11:27:29.420Z,19.23
2017-08-30T11:30:27.635Z,15.07
2017-08-30T11:33:25.200Z,19.60
2017-08-30T11:36:22.703Z,23.17
2017-08-30T11:39:20.232Z,12.30
2017-08-30T11:42:17.824Z,16.90
2017-08-30T11:45:15.492Z,15.80
2017-08-30T11:48:13.099Z,17.17
2017-08-30T11:51:10.879Z,12.40
2017-08-30T11:54:08.836Z,12.57
2017-08-30T11:57:06.398Z,13.10
2017-08-30T12:00:04.832Z,13.77
2017-08-30T12:03:02.633Z,10.13
2017-08-30T12:06:00.336Z,15.77
2017-08-30T12:08:58.903Z,14.23
2017-08-30T12:12:00.844Z,10.23
2017-08-30T12:14:58.499Z,12.63
2017-08-30T12:17:56.374Z,12.63
2017-08-30T12:20:54.220Z,15.13
2017-08-30T12:23:51.830Z,11.10
2017-08-30T12:26:50.540Z,15.37
2017-08-30T12:29:51.038Z,19.03
2017-08-30T12:32:49.583Z,12.70
2017-08-30T12:35:47.312Z,16.60
2017-08-30T12:38:50.527Z,18.37
2017-08-30T12:41:48.180Z,14.63
2017-08-30T12:44:48.866Z,16.83
2017-08-30T12:47:50.468Z,14.67
2017-08-30T12:50:49.047Z,25.63
2017-08-30T12:53:46.816Z,12.40
2017-08-30T12:56:47.340Z,12.80
2017-08-30T12:59:44.977Z,14.70
2017-08-30T13:02:43.528Z,15.33
2017-08-30T13:05:47.184Z,15.80
2017-08-30T13:08:44.428Z,11.53
2017-08-30T13:11:42.347Z,20.97
2017-08-30T13:14:40.033Z,15.93
2017-08-30T13:17:37.776Z,9.23
2017-08-30T13:20:35.302Z,13.70
2017-08-30T13:23:32.925Z,26.53
2017-08-30T13:26:34.595Z,16.57
2017-08-30T13:29:32.043Z,16.77
2017-08-30T13:32:29.652Z,15.53
2017-08-30T13:35:27.456Z,14.40
2017-08-30T13:38:25.027Z,15.57
2017-08-30T13:41:22.851Z,16.50
2017-08-30T13:44:20.539Z,10.20
2017-08-30T13:47:18.260Z,9.20
2017-08-30T13:50:15.638Z,16.43
2017-08-30T13:53:13.166Z,10.50
2017-08-30T13:56:10.780Z,10.70
2017-08-30T13:59:10.407Z,8.03
2017-08-30T14:02:07.872Z,17.50
2017-08-30T14:05:05.594Z,20.13
2017-08-30T14:08:04.260Z,9.93
2017-08-30T14:11:02.064Z,12.60
2017-08-30T14:14:06.623Z,13.27
2017-08-30T14:17:06.679Z,13.73
2017-08-30T14:20:04.475Z,21.17
2017-08-30T14:23:03.176Z,18.53
2017-08-30T14:26:01.007Z,10.13
2017-08-30T14:29:00.597Z,11.07
2017-08-30T14:31:58.132Z,10.23
2017-08-30T14:34:55.696Z,13.70
2017-08-30T14:37:54.355Z,12.83
2017-08-30T14:40:51.973Z,16.37
2017-08-30T14:43:49.871Z,13.13
2017-08-30T14:46:48.768Z,15.77
2017-08-30T14:49:46.603Z,15.00
2017-08-30T14:52:44.329Z,15.93
2017-08-30T14:55:41.963Z,13.00
2017-08-30T14:58:43.504Z,11.40
2017-08-30T15:01:41.109Z,12.97
2017-08-30T15:04:38.848Z,12.77
2017-08-30T15:07:36.521Z,11.37
2017-08-30T15:10:34.323Z,11.57
2017-08-30T15:13:31.835Z,15.13
2017-08-30T15:16:29.726Z,13.13
2017-08-30T15:19:34.335Z,16.00
2017-08-30T15:22:32.151Z,15.87
2017-08-30T15:25:29.775Z,9.80
2017-08-30T15:28:27.372Z,10.17
2017-08-30T15:31:24.923Z,9.33
2017-08-30T15:34:22.636Z,10.47
2017-08-30T15:37:20.040Z,13.93
2017-08-30T15:40:17.518Z,9.87
2017-08-30T15:43:15.040Z,17.00
2017-08-30T15:46:14.568Z,15.60
2017-08-30T15:49:14.140Z,10.27
2017-08-30T15:52:12.610Z,14.50
2017-08-30T15:55:10.225Z,11.00
2017-08-30T15:58:09.151Z,11.23
2017-08-30T16:01:15.979Z,8.07
2017-08-30T16:04:14.943Z,10.43
2017-08-30T16:07:16.476Z,11.97
2017-08-30T16:10:14.259Z,8.60
2017-08-30T16:13:11.969Z,13.93
2017-08-30T16:16:10.274Z,12.30
2017-08-30T16:19:07.768Z,24.27
2017-08-30T16:22:05.472Z,10.83
2017-08-30T16:25:04.947Z,11.77
2017-08-30T16:28:04.030Z,13.70
2017-08-30T16:31:03.686Z,15.17
2017-08-30T16:34:01.164Z,16.77
2017-08-30T16:37:04.186Z,9.60
2017-08-30T16:40:01.881Z,12.43
2017-08-30T16:43:00.520Z,21.37
2017-08-30T16:45:58.151Z,12.10
2017-08-30T16:48:59.072Z,10.30
2017-08-30T16:51:56.843Z,10.57
2017-08-30T16:54:55.376Z,14.10
2017-08-30T16:57:53.081Z,10.70
2017-08-30T17:00:50.973Z,13.53
2017-08-30T17:03:49.560Z,11.87
2017-08-30T17:06:47.280Z,9.83
2017-08-30T17:09:45.369Z,8.90
2017-08-30T17:12:43.084Z,11.43
2017-08-30T17:15:41.751Z,15.70
2017-08-30T17:18:39.370Z,10.60
2017-08-30T17:21:39.135Z,9.23
2017-08-30T17:24:36.548Z,10.10
2017-08-30T17:27:36.289Z,13.03
2017-08-30T17:30:35.840Z,13.77
2017-08-30T17:33:33.468Z,21.97
2017-08-30T17:36:36.121Z,12.90
2017-08-30T17:39:47.842Z,11.00
2017-08-30T17:42:52.507Z,16.00
2017-08-30T17:45:50.432Z,5.90
2017-08-30T17:48:59.063Z,14.30
2017-08-30T17:51:56.744Z,8.23
2017-08-30T17:55:00.109Z,11.80
2017-08-30T17:57:57.807Z,15.83
2017-08-30T18:00:55.356Z,9.57
2017-08-30T18:03:53.071Z,8.43
2017-08-30T18:06:50.836Z,12.93
2017-08-30T18:09:48.827Z,6.83
2017-08-30T18:12:46.914Z,7.00
2017-08-30T18:15:44.535Z,10.53
2017-08-30T18:18:41.792Z,9.70
2017-08-30T18:21:40.660Z,10.90
2017-08-30T18:24:40.168Z,7.03
2017-08-30T18:27:38.937Z,12.53
2017-08-30T18:30:36.485Z,8.10
2017-08-30T18:33:37.979Z,11.00
2017-08-30T18:36:36.555Z,14.70
2017-08-30T18:39:41.108Z,12.90
2017-08-30T18:42:38.847Z,8.27
2017-08-30T18:45:38.204Z,8.20
2017-08-30T18:48:35.708Z,6.70
2017-08-30T18:51:33.459Z,12.83
2017-08-30T18:54:31.216Z,10.00
2017-08-30T18:57:41.511Z,12.07
2017-08-30T19:00:42.198Z,13.90
2017-08-30T19:03:39.861Z,8.00
2017-08-30T19:06:37.375Z,11.43
2017-08-30T19:09:34.860Z,9.77
2017-08-30T19:12:33.440Z,9.33
2017-08-30T19:15:31.116Z,11.30
2017-08-30T19:18:28.812Z,11.27
2017-08-30T19:21:34.524Z,8.53
2017-08-30T19:24:34.934Z,8.87
2017-08-30T19:27:33.092Z,5.20
2017-08-30T19:30:30.676Z,6.40
2017-08-30T19:33:28.400Z,5.47
2017-08-30T19:36:29.004Z,7.87
2017-08-30T19:39:27.768Z,6.90
2017-08-30T19:42:25.224Z,8.10
2017-08-30T19:45:22.894Z,8.47
2017-08-30T19:48:23.191Z,8.57
2017-08-30T19:51:21.790Z,7.50
2017-08-30T19:54:19.318Z,12.73
2017-08-30T19:57:31.479Z,8.47
2017-08-30T20:00:31.097Z,9.67
2017-08-30T20:03:30.885Z,10.27
2017-08-30T20:06:28.380Z,6.90
2017-08-30T20:09:25.773Z,5.43
2017-08-30T20:12:23.497Z,8.33
2017-08-30T20:15:21.088Z,9.83
2017-08-30T20:18:18.750Z,8.60
2017-08-30T20:21:16.575Z,9.40
2017-08-30T20:24:14.228Z,6.67
2017-08-30T20:27:12.077Z,6.20
2017-08-30T20:30:09.548Z,5.67
2017-08-30T20:33:07.012Z,15.97
2017-08-30T20:36:04.909Z,4.63
2017-08-30T20:39:05.575Z,9.00
2017-08-30T20:42:03.099Z,10.83
2017-08-30T20:45:00.709Z,6.20
2017-08-30T20:48:00.347Z,6.00
2017-08-30T20:51:05.125Z,6.03
2017-08-30T20:54:02.250Z,7.70
2017-08-30T20:57:02.830Z,7.27
2017-08-30T21:00:01.664Z,8.90
2017-08-30T21:02:59.319Z,5.17
2017-08-30T21:05:58.207Z,8.23
2017-08-30T21:08:55.800Z,4.53
2017-08-30T21:11:53.873Z,8.87
2017-08-30T21:14:51.491Z,9.13
2017-08-30T21:17:49.063Z,5.53
2017-08-30T21:20:46.936Z,6.50
2017-08-30T21:23:44.556Z,7.97
2017-08-30T21:26:48.468Z,11.87
2017-08-30T21:29:46.115Z,4.73
2017-08-30T21:32:43.867Z,13.20
2017-08-30T21:35:42.420Z,3.07
2017-08-30T21:38:39.973Z,6.80
2017-08-30T21:41:37.415Z,3.47
2017-08-30T21:44:35.203Z,3.83
2017-08-30T21:47:32.908Z,5.07
2017-08-30T21:50:30.353Z,9.53
2017-08-30T21:53:27.947Z,2.63
2017-08-30T21:56:25.446Z,12.33
2017-08-30T21:59:22.986Z,4.13
2017-08-30T22:02:20.529Z,3.70
2017-08-30T22:05:18.156Z,5.00
2017-08-30T22:08:15.785Z,11.90
2017-08-30T22:11:13.280Z,3.87
2017-08-30T22:14:10.916Z,6.17
2017-08-30T22:17:08.454Z,5.90
2017-08-30T22:20:06.064Z,10.00
2017-08-30T22:23:05.965Z,8.23
2017-08-30T22:26:04.848Z,8.33
2017-08-30T22:29:05.600Z,5.90
2017-08-30T22:32:03.110Z,6.80
2017-08-30T22:35:03.820Z,4.70
2017-08-30T22:38:01.411Z,4.43
2017-08-30T22:40:59.140Z,5.47
2017-08-30T22:43:58.856Z,6.60
2017-08-30T22:46:56.671Z,4.97
2017-08-30T22:50:00.352Z,9.70
2017-08-30T22:52:58.288Z,5.07
2017-08-30T22:55:55.864Z,4.90
2017-08-30T22:58:53.576Z,4.83
2017-08-30T23:01:51.233Z,8.63
2017-08-30T23:04:48.893Z,6.50
2017-08-30T23:07:57.524Z,7.83
2017-08-30T23:10:55.108Z,6.87
2017-08-30T23:13:52.588Z,5.00
2017-08-30T23:16:51.536Z,7.00
2017-08-30T23:19:49.563Z,6.10
2017-08-30T23:22:46.736Z,7.70
2017-08-30T23:25:52.472Z,6.53
2017-08-30T23:28:50.415Z,6.50
2017-08-30T23:31:48.308Z,8.70
2017-08-30T23:34:47.212Z,7.97
2017-08-30T23:37:46.025Z,5.93
2017-08-30T23:40:44.168Z,6.43
2017-08-30T23:43:43.393Z,5.20
2017-08-30T23:46:41.308Z,5.47
2017-08-30T23:49:39.067Z,5.20
2017-08-30T23:52:36.889Z,5.10
2017-08-30T23:55:34.448Z,6.43
2017-08-30T23:58:32.208Z,7.37
